sensor_id;sensor_type;location;lat;lon;timestamp;P1;durP1;ratioP1;P2;durP2;ratioP2
13040;SDS011;6587;42.728;23.288;2023-04-25T00:01:32;3.97;;;3.57;;
13040;SDS011;6587;42.728;23.288;2023-04-25T00:04:01;4.10;;;3.53;;
13040;SDS011;6587;42.728;23.288;2023-04-25T00:06:29;3.97;;;3.57;;
13040;SDS011;6587;42.728;23.288;2023-04-25T00:08:57;4.53;;;3.47;;
13040;SDS011;6587;42.728;23.288;2023-04-25T00:11:23;4.70;;;4.07;;
13040;SDS011;6587;42.728;23.288;2023-04-25T00:13:50;4.97;;;3.60;;
13040;SDS011;6587;42.728;23.288;2023-04-25T00:16:17;6.33;;;4.00;;
13040;SDS011;6587;42.728;23.288;2023-04-25T00:18:43;5.43;;;4.43;;
13040;SDS011;6587;42.728;23.288;2023-04-25T00:21:11;7.03;;;4.73;;
13040;SDS011;6587;42.728;23.288;2023-04-25T00:23:39;6.93;;;4.97;;
13040;SDS011;6587;42.728;23.288;2023-04-25T00:26:06;6.40;;;4.50;;
13040;SDS011;6587;42.728;23.288;2023-04-25T00:28:32;6.10;;;4.30;;
13040;SDS011;6587;42.728;23.288;2023-04-25T00:30:59;6.77;;;4.97;;
13040;SDS011;6587;42.728;23.288;2023-04-25T00:33:26;6.10;;;4.57;;
13040;SDS011;6587;42.728;23.288;2023-04-25T00:35:53;9.33;;;4.97;;
13040;SDS011;6587;42.728;23.288;2023-04-25T00:38:19;9.07;;;5.30;;
13040;SDS011;6587;42.728;23.288;2023-04-25T00:40:47;6.63;;;4.93;;
13040;SDS011;6587;42.728;23.288;2023-04-25T00:43:14;9.50;;;5.60;;
13040;SDS011;6587;42.728;23.288;2023-04-25T00:45:41;9.37;;;4.90;;
13040;SDS011;6587;42.728;23.288;2023-04-25T00:48:09;6.20;;;4.80;;
13040;SDS011;6587;42.728;23.288;2023-04-25T00:50:36;7.87;;;4.93;;
13040;SDS011;6587;42.728;23.288;2023-04-25T00:53:03;8.80;;;5.50;;
13040;SDS011;6587;42.728;23.288;2023-04-25T00:55:30;7.27;;;4.77;;
13040;SDS011;6587;42.728;23.288;2023-04-25T00:57:59;7.10;;;4.77;;
13040;SDS011;6587;42.728;23.288;2023-04-25T01:00:26;6.57;;;4.90;;
13040;SDS011;6587;42.728;23.288;2023-04-25T01:02:52;8.80;;;5.10;;
13040;SDS011;6587;42.728;23.288;2023-04-25T01:05:19;9.70;;;5.33;;
13040;SDS011;6587;42.728;23.288;2023-04-25T01:07:47;7.20;;;4.90;;
13040;SDS011;6587;42.728;23.288;2023-04-25T01:10:13;7.50;;;5.27;;
13040;SDS011;6587;42.728;23.288;2023-04-25T01:12:41;8.70;;;5.63;;
13040;SDS011;6587;42.728;23.288;2023-04-25T01:15:10;7.80;;;5.33;;
13040;SDS011;6587;42.728;23.288;2023-04-25T01:17:36;9.23;;;5.20;;
13040;SDS011;6587;42.728;23.288;2023-04-25T01:20:05;7.90;;;5.67;;
13040;SDS011;6587;42.728;23.288;2023-04-25T01:22:34;8.83;;;6.27;;
13040;SDS011;6587;42.728;23.288;2023-04-25T01:25:00;8.63;;;6.13;;
13040;SDS011;6587;42.728;23.288;2023-04-25T01:27:29;10.03;;;6.17;;
13040;SDS011;6587;42.728;23.288;2023-04-25T01:29:56;10.27;;;7.13;;
13040;SDS011;6587;42.728;23.288;2023-04-25T01:32:23;10.33;;;6.33;;
13040;SDS011;6587;42.728;23.288;2023-04-25T01:34:50;8.93;;;6.03;;
13040;SDS011;6587;42.728;23.288;2023-04-25T01:37:18;8.10;;;6.07;;
13040;SDS011;6587;42.728;23.288;2023-04-25T01:39:47;9.53;;;6.30;;
13040;SDS011;6587;42.728;23.288;2023-04-25T01:42:15;8.83;;;6.53;;
13040;SDS011;6587;42.728;23.288;2023-04-25T01:44:42;10.03;;;7.07;;
13040;SDS011;6587;42.728;23.288;2023-04-25T01:47:09;12.83;;;6.97;;
13040;SDS011;6587;42.728;23.288;2023-04-25T01:49:36;11.37;;;7.40;;
13040;SDS011;6587;42.728;23.288;2023-04-25T01:52:02;13.20;;;8.10;;
13040;SDS011;6587;42.728;23.288;2023-04-25T01:54:30;10.53;;;7.73;;
13040;SDS011;6587;42.728;23.288;2023-04-25T01:56:58;11.43;;;7.37;;
13040;SDS011;6587;42.728;23.288;2023-04-25T01:59:25;12.80;;;7.47;;
13040;SDS011;6587;42.728;23.288;2023-04-25T02:02:15;10.40;;;7.27;;
13040;SDS011;6587;42.728;23.288;2023-04-25T02:04:43;11.93;;;7.77;;
13040;SDS011;6587;42.728;23.288;2023-04-25T02:07:11;11.73;;;7.73;;
13040;SDS011;6587;42.728;23.288;2023-04-25T02:09:46;13.83;;;8.17;;
13040;SDS011;6587;42.728;23.288;2023-04-25T02:12:15;13.10;;;8.97;;
13040;SDS011;6587;42.728;23.288;2023-04-25T02:15:02;13.67;;;8.47;;
13040;SDS011;6587;42.728;23.288;2023-04-25T02:17:47;11.77;;;7.70;;
13040;SDS011;6587;42.728;23.288;2023-04-25T02:20:14;14.03;;;8.87;;
13040;SDS011;6587;42.728;23.288;2023-04-25T02:22:42;13.10;;;8.80;;
13040;SDS011;6587;42.728;23.288;2023-04-25T02:25:09;14.83;;;8.97;;
13040;SDS011;6587;42.728;23.288;2023-04-25T02:27:38;14.83;;;8.87;;
13040;SDS011;6587;42.728;23.288;2023-04-25T02:30:07;16.00;;;9.37;;
13040;SDS011;6587;42.728;23.288;2023-04-25T02:32:34;14.93;;;9.30;;
13040;SDS011;6587;42.728;23.288;2023-04-25T02:35:01;14.13;;;9.60;;
13040;SDS011;6587;42.728;23.288;2023-04-25T02:37:29;16.57;;;9.43;;
13040;SDS011;6587;42.728;23.288;2023-04-25T02:39:56;17.60;;;10.70;;
13040;SDS011;6587;42.728;23.288;2023-04-25T02:42:23;15.20;;;11.03;;
13040;SDS011;6587;42.728;23.288;2023-04-25T02:44:51;18.50;;;12.27;;
13040;SDS011;6587;42.728;23.288;2023-04-25T02:47:17;15.03;;;10.60;;
13040;SDS011;6587;42.728;23.288;2023-04-25T02:49:44;15.50;;;10.03;;
13040;SDS011;6587;42.728;23.288;2023-04-25T02:52:11;18.27;;;10.63;;
13040;SDS011;6587;42.728;23.288;2023-04-25T02:54:38;17.17;;;10.57;;
13040;SDS011;6587;42.728;23.288;2023-04-25T02:57:05;17.97;;;11.77;;
13040;SDS011;6587;42.728;23.288;2023-04-25T02:59:35;18.83;;;11.57;;
13040;SDS011;6587;42.728;23.288;2023-04-25T03:02:03;18.67;;;11.73;;
13040;SDS011;6587;42.728;23.288;2023-04-25T03:04:30;16.00;;;11.23;;
13040;SDS011;6587;42.728;23.288;2023-04-25T03:06:58;15.77;;;10.43;;
13040;SDS011;6587;42.728;23.288;2023-04-25T03:09:25;16.30;;;10.40;;
13040;SDS011;6587;42.728;23.288;2023-04-25T03:11:52;18.60;;;11.67;;
13040;SDS011;6587;42.728;23.288;2023-04-25T03:14:20;18.47;;;11.00;;
13040;SDS011;6587;42.728;23.288;2023-04-25T03:16:47;17.40;;;11.07;;
13040;SDS011;6587;42.728;23.288;2023-04-25T03:19:17;17.07;;;10.60;;
13040;SDS011;6587;42.728;23.288;2023-04-25T03:21:44;17.10;;;11.23;;
13040;SDS011;6587;42.728;23.288;2023-04-25T03:24:12;17.63;;;11.67;;
13040;SDS011;6587;42.728;23.288;2023-04-25T03:26:38;18.00;;;11.67;;
13040;SDS011;6587;42.728;23.288;2023-04-25T03:29:05;19.00;;;11.00;;
13040;SDS011;6587;42.728;23.288;2023-04-25T03:31:33;18.47;;;10.97;;
13040;SDS011;6587;42.728;23.288;2023-04-25T03:34:00;16.37;;;10.83;;
13040;SDS011;6587;42.728;23.288;2023-04-25T03:36:28;17.43;;;10.43;;
13040;SDS011;6587;42.728;23.288;2023-04-25T03:38:55;16.10;;;10.03;;
13040;SDS011;6587;42.728;23.288;2023-04-25T03:41:21;15.80;;;9.60;;
13040;SDS011;6587;42.728;23.288;2023-04-25T03:44:00;14.87;;;9.33;;
13040;SDS011;6587;42.728;23.288;2023-04-25T03:46:27;15.73;;;9.90;;
13040;SDS011;6587;42.728;23.288;2023-04-25T03:48:53;17.13;;;10.40;;
13040;SDS011;6587;42.728;23.288;2023-04-25T03:51:25;18.60;;;10.70;;
13040;SDS011;6587;42.728;23.288;2023-04-25T03:53:53;20.27;;;11.03;;
13040;SDS011;6587;42.728;23.288;2023-04-25T03:56:46;14.83;;;9.47;;
13040;SDS011;6587;42.728;23.288;2023-04-25T03:59:18;16.67;;;10.20;;
13040;SDS011;6587;42.728;23.288;2023-04-25T04:01:45;18.00;;;10.97;;
13040;SDS011;6587;42.728;23.288;2023-04-25T04:04:12;18.30;;;10.83;;
13040;SDS011;6587;42.728;23.288;2023-04-25T04:06:38;16.70;;;11.57;;
13040;SDS011;6587;42.728;23.288;2023-04-25T04:09:15;16.83;;;10.57;;
13040;SDS011;6587;42.728;23.288;2023-04-25T04:11:43;19.00;;;11.40;;
13040;SDS011;6587;42.728;23.288;2023-04-25T04:14:10;16.20;;;10.97;;
13040;SDS011;6587;42.728;23.288;2023-04-25T04:16:41;17.83;;;11.00;;
13040;SDS011;6587;42.728;23.288;2023-04-25T04:19:08;14.13;;;9.80;;
13040;SDS011;6587;42.728;23.288;2023-04-25T04:21:35;14.73;;;9.57;;
13040;SDS011;6587;42.728;23.288;2023-04-25T04:24:02;12.77;;;9.53;;
13040;SDS011;6587;42.728;23.288;2023-04-25T04:26:42;12.10;;;8.50;;
13040;SDS011;6587;42.728;23.288;2023-04-25T04:29:30;12.57;;;9.13;;
13040;SDS011;6587;42.728;23.288;2023-04-25T04:32:01;13.30;;;9.07;;
13040;SDS011;6587;42.728;23.288;2023-04-25T04:34:31;15.30;;;9.97;;
13040;SDS011;6587;42.728;23.288;2023-04-25T04:37:01;15.03;;;9.10;;
13040;SDS011;6587;42.728;23.288;2023-04-25T04:39:27;14.67;;;10.20;;
13040;SDS011;6587;42.728;23.288;2023-04-25T04:42:17;16.77;;;9.97;;
13040;SDS011;6587;42.728;23.288;2023-04-25T04:45:05;13.30;;;9.10;;
13040;SDS011;6587;42.728;23.288;2023-04-25T04:47:47;11.23;;;7.97;;
13040;SDS011;6587;42.728;23.288;2023-04-25T04:50:23;9.93;;;7.37;;
13040;SDS011;6587;42.728;23.288;2023-04-25T04:53:10;12.30;;;7.40;;
13040;SDS011;6587;42.728;23.288;2023-04-25T04:55:37;10.43;;;7.63;;
13040;SDS011;6587;42.728;23.288;2023-04-25T04:58:21;10.27;;;6.80;;
13040;SDS011;6587;42.728;23.288;2023-04-25T05:01:10;11.23;;;7.40;;
13040;SDS011;6587;42.728;23.288;2023-04-25T05:03:53;13.20;;;9.03;;
13040;SDS011;6587;42.728;23.288;2023-04-25T05:06:45;12.60;;;8.07;;
13040;SDS011;6587;42.728;23.288;2023-04-25T05:09:17;10.10;;;6.90;;
13040;SDS011;6587;42.728;23.288;2023-04-25T05:12:04;7.60;;;6.13;;
13040;SDS011;6587;42.728;23.288;2023-04-25T05:14:58;9.57;;;6.70;;
13040;SDS011;6587;42.728;23.288;2023-04-25T05:17:37;11.43;;;7.37;;
13040;SDS011;6587;42.728;23.288;2023-04-25T05:20:30;9.30;;;6.33;;
13040;SDS011;6587;42.728;23.288;2023-04-25T05:23:22;10.20;;;8.03;;
13040;SDS011;6587;42.728;23.288;2023-04-25T05:26:09;9.67;;;7.37;;
13040;SDS011;6587;42.728;23.288;2023-04-25T05:29:11;7.70;;;6.07;;
13040;SDS011;6587;42.728;23.288;2023-04-25T05:31:58;7.63;;;5.90;;
13040;SDS011;6587;42.728;23.288;2023-04-25T05:34:25;9.80;;;7.00;;
13040;SDS011;6587;42.728;23.288;2023-04-25T05:36:57;8.60;;;7.23;;
13040;SDS011;6587;42.728;23.288;2023-04-25T05:39:24;11.43;;;7.37;;
13040;SDS011;6587;42.728;23.288;2023-04-25T05:42:03;10.83;;;7.03;;
13040;SDS011;6587;42.728;23.288;2023-04-25T05:44:48;10.57;;;7.63;;
13040;SDS011;6587;42.728;23.288;2023-04-25T05:47:28;10.93;;;7.13;;
13040;SDS011;6587;42.728;23.288;2023-04-25T05:50:04;10.73;;;7.60;;
13040;SDS011;6587;42.728;23.288;2023-04-25T05:52:51;10.83;;;7.90;;
13040;SDS011;6587;42.728;23.288;2023-04-25T05:55:24;10.57;;;7.83;;
13040;SDS011;6587;42.728;23.288;2023-04-25T05:57:51;10.47;;;7.83;;
13040;SDS011;6587;42.728;23.288;2023-04-25T06:00:18;11.67;;;7.63;;
13040;SDS011;6587;42.728;23.288;2023-04-25T06:02:49;12.23;;;7.77;;
13040;SDS011;6587;42.728;23.288;2023-04-25T06:05:17;11.27;;;7.70;;
13040;SDS011;6587;42.728;23.288;2023-04-25T06:07:45;11.00;;;8.17;;
13040;SDS011;6587;42.728;23.288;2023-04-25T06:10:12;15.33;;;9.70;;
13040;SDS011;6587;42.728;23.288;2023-04-25T06:12:38;14.30;;;9.47;;
13040;SDS011;6587;42.728;23.288;2023-04-25T06:15:05;16.03;;;9.33;;
13040;SDS011;6587;42.728;23.288;2023-04-25T06:17:32;17.90;;;10.40;;
13040;SDS011;6587;42.728;23.288;2023-04-25T06:20:01;16.70;;;9.17;;
13040;SDS011;6587;42.728;23.288;2023-04-25T06:22:28;16.87;;;10.00;;
13040;SDS011;6587;42.728;23.288;2023-04-25T06:24:55;13.53;;;8.67;;
13040;SDS011;6587;42.728;23.288;2023-04-25T06:27:24;10.77;;;8.23;;
13040;SDS011;6587;42.728;23.288;2023-04-25T06:29:51;10.33;;;8.27;;
13040;SDS011;6587;42.728;23.288;2023-04-25T06:32:17;15.27;;;10.43;;
13040;SDS011;6587;42.728;23.288;2023-04-25T06:34:44;18.00;;;11.40;;
13040;SDS011;6587;42.728;23.288;2023-04-25T06:37:12;15.13;;;11.17;;
13040;SDS011;6587;42.728;23.288;2023-04-25T06:39:40;14.17;;;10.93;;
13040;SDS011;6587;42.728;23.288;2023-04-25T06:42:07;14.50;;;10.90;;
13040;SDS011;6587;42.728;23.288;2023-04-25T06:44:51;15.70;;;11.70;;
13040;SDS011;6587;42.728;23.288;2023-04-25T06:47:19;16.17;;;11.50;;
13040;SDS011;6587;42.728;23.288;2023-04-25T06:49:47;18.10;;;11.63;;
13040;SDS011;6587;42.728;23.288;2023-04-25T06:52:15;17.27;;;12.00;;
13040;SDS011;6587;42.728;23.288;2023-04-25T06:54:43;18.33;;;11.70;;
13040;SDS011;6587;42.728;23.288;2023-04-25T06:57:36;17.17;;;11.17;;
13040;SDS011;6587;42.728;23.288;2023-04-25T07:00:22;15.03;;;11.03;;
13040;SDS011;6587;42.728;23.288;2023-04-25T07:02:49;17.20;;;11.70;;
13040;SDS011;6587;42.728;23.288;2023-04-25T07:05:16;15.40;;;10.73;;
13040;SDS011;6587;42.728;23.288;2023-04-25T07:07:44;14.00;;;11.27;;
13040;SDS011;6587;42.728;23.288;2023-04-25T07:10:11;18.30;;;12.13;;
13040;SDS011;6587;42.728;23.288;2023-04-25T07:12:37;14.27;;;10.33;;
13040;SDS011;6587;42.728;23.288;2023-04-25T07:15:05;17.60;;;11.57;;
13040;SDS011;6587;42.728;23.288;2023-04-25T07:17:34;17.70;;;11.17;;
13040;SDS011;6587;42.728;23.288;2023-04-25T07:20:01;16.50;;;11.13;;
13040;SDS011;6587;42.728;23.288;2023-04-25T07:22:29;18.77;;;11.80;;
13040;SDS011;6587;42.728;23.288;2023-04-25T07:24:57;19.63;;;12.07;;
13040;SDS011;6587;42.728;23.288;2023-04-25T07:27:25;16.80;;;11.67;;
13040;SDS011;6587;42.728;23.288;2023-04-25T07:30:01;15.27;;;11.33;;
13040;SDS011;6587;42.728;23.288;2023-04-25T07:32:29;21.57;;;11.83;;
13040;SDS011;6587;42.728;23.288;2023-04-25T07:34:56;14.60;;;10.93;;
13040;SDS011;6587;42.728;23.288;2023-04-25T07:37:22;16.03;;;11.17;;
13040;SDS011;6587;42.728;23.288;2023-04-25T07:40:01;16.47;;;11.40;;
13040;SDS011;6587;42.728;23.288;2023-04-25T07:42:29;18.73;;;11.80;;
13040;SDS011;6587;42.728;23.288;2023-04-25T07:44:56;18.43;;;12.00;;
13040;SDS011;6587;42.728;23.288;2023-04-25T07:47:22;20.13;;;11.63;;
13040;SDS011;6587;42.728;23.288;2023-04-25T07:49:51;15.70;;;11.23;;
13040;SDS011;6587;42.728;23.288;2023-04-25T07:52:18;17.50;;;11.97;;
13040;SDS011;6587;42.728;23.288;2023-04-25T07:54:50;17.33;;;11.80;;
13040;SDS011;6587;42.728;23.288;2023-04-25T07:57:24;16.57;;;11.80;;
13040;SDS011;6587;42.728;23.288;2023-04-25T07:59:53;15.97;;;12.03;;
13040;SDS011;6587;42.728;23.288;2023-04-25T08:02:21;19.07;;;12.60;;
13040;SDS011;6587;42.728;23.288;2023-04-25T08:04:47;14.93;;;11.13;;
13040;SDS011;6587;42.728;23.288;2023-04-25T08:07:16;18.73;;;11.10;;
13040;SDS011;6587;42.728;23.288;2023-04-25T08:09:52;20.13;;;12.20;;
13040;SDS011;6587;42.728;23.288;2023-04-25T08:12:28;15.10;;;11.37;;
13040;SDS011;6587;42.728;23.288;2023-04-25T08:14:56;15.27;;;10.60;;
13040;SDS011;6587;42.728;23.288;2023-04-25T08:17:25;17.03;;;11.37;;
13040;SDS011;6587;42.728;23.288;2023-04-25T08:19:52;17.70;;;10.87;;
13040;SDS011;6587;42.728;23.288;2023-04-25T08:22:26;16.20;;;10.43;;
13040;SDS011;6587;42.728;23.288;2023-04-25T08:25:10;14.70;;;10.47;;
13040;SDS011;6587;42.728;23.288;2023-04-25T08:27:38;12.47;;;9.67;;
13040;SDS011;6587;42.728;23.288;2023-04-25T08:30:06;16.03;;;10.67;;
13040;SDS011;6587;42.728;23.288;2023-04-25T08:32:34;17.13;;;10.97;;
13040;SDS011;6587;42.728;23.288;2023-04-25T08:35:21;18.07;;;11.53;;
13040;SDS011;6587;42.728;23.288;2023-04-25T08:37:49;12.20;;;10.53;;
13040;SDS011;6587;42.728;23.288;2023-04-25T08:40:16;17.63;;;11.30;;
13040;SDS011;6587;42.728;23.288;2023-04-25T08:42:51;15.77;;;11.40;;
13040;SDS011;6587;42.728;23.288;2023-04-25T08:45:19;14.47;;;8.43;;
13040;SDS011;6587;42.728;23.288;2023-04-25T08:47:46;9.60;;;7.47;;
13040;SDS011;6587;42.728;23.288;2023-04-25T08:50:14;9.90;;;7.03;;
13040;SDS011;6587;42.728;23.288;2023-04-25T08:52:43;11.47;;;8.30;;
13040;SDS011;6587;42.728;23.288;2023-04-25T08:55:11;13.90;;;9.37;;
13040;SDS011;6587;42.728;23.288;2023-04-25T08:57:38;15.70;;;10.17;;
13040;SDS011;6587;42.728;23.288;2023-04-25T09:00:09;13.87;;;9.33;;
13040;SDS011;6587;42.728;23.288;2023-04-25T09:02:38;14.23;;;10.20;;
13040;SDS011;6587;42.728;23.288;2023-04-25T09:05:06;14.50;;;9.43;;
13040;SDS011;6587;42.728;23.288;2023-04-25T09:07:35;12.47;;;9.43;;
13040;SDS011;6587;42.728;23.288;2023-04-25T09:10:02;10.90;;;8.53;;
13040;SDS011;6587;42.728;23.288;2023-04-25T09:12:33;12.93;;;8.80;;
13040;SDS011;6587;42.728;23.288;2023-04-25T09:15:05;10.00;;;7.63;;
13040;SDS011;6587;42.728;23.288;2023-04-25T09:17:56;8.40;;;7.30;;
13040;SDS011;6587;42.728;23.288;2023-04-25T09:20:25;11.50;;;7.70;;
13040;SDS011;6587;42.728;23.288;2023-04-25T09:23:00;8.93;;;7.03;;
13040;SDS011;6587;42.728;23.288;2023-04-25T09:25:33;9.33;;;7.50;;
13040;SDS011;6587;42.728;23.288;2023-04-25T09:28:00;8.20;;;6.83;;
13040;SDS011;6587;42.728;23.288;2023-04-25T09:30:31;9.00;;;7.07;;
13040;SDS011;6587;42.728;23.288;2023-04-25T09:33:32;7.20;;;5.50;;
13040;SDS011;6587;42.728;23.288;2023-04-25T09:36:01;7.43;;;5.77;;
13040;SDS011;6587;42.728;23.288;2023-04-25T09:38:41;6.00;;;4.90;;
13040;SDS011;6587;42.728;23.288;2023-04-25T09:41:21;4.97;;;4.47;;
13040;SDS011;6587;42.728;23.288;2023-04-25T09:43:48;7.67;;;3.80;;
13040;SDS011;6587;42.728;23.288;2023-04-25T09:46:15;3.30;;;3.00;;
13040;SDS011;6587;42.728;23.288;2023-04-25T09:48:53;3.50;;;3.07;;
13040;SDS011;6587;42.728;23.288;2023-04-25T09:51:32;4.13;;;3.00;;
13040;SDS011;6587;42.728;23.288;2023-04-25T09:54:00;3.60;;;2.80;;
13040;SDS011;6587;42.728;23.288;2023-04-25T09:56:34;3.20;;;2.90;;
13040;SDS011;6587;42.728;23.288;2023-04-25T09:59:03;2.83;;;2.30;;
13040;SDS011;6587;42.728;23.288;2023-04-25T10:01:32;2.90;;;2.30;;
13040;SDS011;6587;42.728;23.288;2023-04-25T10:04:12;5.10;;;2.50;;
13040;SDS011;6587;42.728;23.288;2023-04-25T10:06:53;4.73;;;2.60;;
13040;SDS011;6587;42.728;23.288;2023-04-25T10:09:23;5.27;;;2.70;;
13040;SDS011;6587;42.728;23.288;2023-04-25T10:11:52;3.10;;;2.43;;
13040;SDS011;6587;42.728;23.288;2023-04-25T10:14:19;2.23;;;1.87;;
13040;SDS011;6587;42.728;23.288;2023-04-25T10:16:45;3.57;;;2.10;;
13040;SDS011;6587;42.728;23.288;2023-04-25T10:19:14;4.23;;;2.67;;
13040;SDS011;6587;42.728;23.288;2023-04-25T10:21:44;3.30;;;2.60;;
13040;SDS011;6587;42.728;23.288;2023-04-25T10:24:12;2.23;;;1.97;;
13040;SDS011;6587;42.728;23.288;2023-04-25T10:26:39;3.23;;;2.30;;
13040;SDS011;6587;42.728;23.288;2023-04-25T10:29:06;2.80;;;1.70;;
13040;SDS011;6587;42.728;23.288;2023-04-25T10:31:33;1.40;;;1.30;;
13040;SDS011;6587;42.728;23.288;2023-04-25T10:33:59;2.20;;;1.63;;
13040;SDS011;6587;42.728;23.288;2023-04-25T10:36:30;2.97;;;1.80;;
13040;SDS011;6587;42.728;23.288;2023-04-25T10:38:58;3.97;;;1.80;;
13040;SDS011;6587;42.728;23.288;2023-04-25T10:41:32;2.43;;;1.90;;
13040;SDS011;6587;42.728;23.288;2023-04-25T10:44:11;3.50;;;1.80;;
13040;SDS011;6587;42.728;23.288;2023-04-25T10:46:38;5.47;;;2.20;;
13040;SDS011;6587;42.728;23.288;2023-04-25T10:49:04;2.57;;;1.73;;
13040;SDS011;6587;42.728;23.288;2023-04-25T10:51:32;3.10;;;1.90;;
13040;SDS011;6587;42.728;23.288;2023-04-25T10:54:00;5.53;;;1.70;;
13040;SDS011;6587;42.728;23.288;2023-04-25T10:56:27;5.60;;;1.93;;
13040;SDS011;6587;42.728;23.288;2023-04-25T11:01:39;1.53;;;1.40;;
13040;SDS011;6587;42.728;23.288;2023-04-25T11:04:06;2.13;;;1.10;;
13040;SDS011;6587;42.728;23.288;2023-04-25T11:06:37;3.20;;;2.00;;
13040;SDS011;6587;42.728;23.288;2023-04-25T11:09:10;2.47;;;1.73;;
13040;SDS011;6587;42.728;23.288;2023-04-25T11:11:38;3.47;;;1.50;;
13040;SDS011;6587;42.728;23.288;2023-04-25T11:14:05;2.10;;;1.30;;
13040;SDS011;6587;42.728;23.288;2023-04-25T11:16:32;2.13;;;1.30;;
13040;SDS011;6587;42.728;23.288;2023-04-25T11:18:58;3.03;;;1.20;;
13040;SDS011;6587;42.728;23.288;2023-04-25T11:21:25;1.70;;;1.17;;
13040;SDS011;6587;42.728;23.288;2023-04-25T11:23:54;3.87;;;1.20;;
13040;SDS011;6587;42.728;23.288;2023-04-25T11:26:23;3.87;;;1.50;;
13040;SDS011;6587;42.728;23.288;2023-04-25T11:28:50;3.53;;;1.77;;
13040;SDS011;6587;42.728;23.288;2023-04-25T11:31:19;1.70;;;1.47;;
13040;SDS011;6587;42.728;23.288;2023-04-25T11:33:46;4.10;;;1.60;;
13040;SDS011;6587;42.728;23.288;2023-04-25T11:36:13;1.60;;;1.40;;
13040;SDS011;6587;42.728;23.288;2023-04-25T11:38:39;3.40;;;2.97;;
13040;SDS011;6587;42.728;23.288;2023-04-25T11:41:08;2.20;;;1.30;;
13040;SDS011;6587;42.728;23.288;2023-04-25T11:43:34;2.33;;;1.90;;
13040;SDS011;6587;42.728;23.288;2023-04-25T11:46:01;3.10;;;2.20;;
13040;SDS011;6587;42.728;23.288;2023-04-25T11:48:36;2.37;;;1.70;;
13040;SDS011;6587;42.728;23.288;2023-04-25T11:51:03;1.90;;;1.60;;
13040;SDS011;6587;42.728;23.288;2023-04-25T11:53:30;3.13;;;1.83;;
13040;SDS011;6587;42.728;23.288;2023-04-25T11:55:57;4.73;;;1.20;;
13040;SDS011;6587;42.728;23.288;2023-04-25T11:58:25;3.80;;;1.27;;
13040;SDS011;6587;42.728;23.288;2023-04-25T12:00:51;1.87;;;1.20;;
13040;SDS011;6587;42.728;23.288;2023-04-25T12:03:18;1.30;;;1.20;;
13040;SDS011;6587;42.728;23.288;2023-04-25T12:05:45;2.03;;;1.40;;
13040;SDS011;6587;42.728;23.288;2023-04-25T12:08:12;1.33;;;1.23;;
13040;SDS011;6587;42.728;23.288;2023-04-25T12:10:39;2.13;;;1.50;;
13040;SDS011;6587;42.728;23.288;2023-04-25T12:13:22;1.50;;;1.40;;
13040;SDS011;6587;42.728;23.288;2023-04-25T12:15:50;3.70;;;1.60;;
13040;SDS011;6587;42.728;23.288;2023-04-25T12:18:18;6.13;;;2.03;;
13040;SDS011;6587;42.728;23.288;2023-04-25T12:20:45;1.67;;;1.57;;
13040;SDS011;6587;42.728;23.288;2023-04-25T12:23:12;2.80;;;1.27;;
13040;SDS011;6587;42.728;23.288;2023-04-25T12:25:39;1.57;;;1.00;;
13040;SDS011;6587;42.728;23.288;2023-04-25T12:28:13;5.13;;;1.40;;
13040;SDS011;6587;42.728;23.288;2023-04-25T12:30:56;1.90;;;1.33;;
13040;SDS011;6587;42.728;23.288;2023-04-25T12:33:24;2.30;;;1.33;;
13040;SDS011;6587;42.728;23.288;2023-04-25T12:35:51;1.80;;;1.37;;
13040;SDS011;6587;42.728;23.288;2023-04-25T12:38:22;2.67;;;1.10;;
13040;SDS011;6587;42.728;23.288;2023-04-25T12:40:48;4.50;;;1.60;;
13040;SDS011;6587;42.728;23.288;2023-04-25T12:43:15;1.87;;;1.30;;
13040;SDS011;6587;42.728;23.288;2023-04-25T12:45:42;3.50;;;1.53;;
13040;SDS011;6587;42.728;23.288;2023-04-25T12:48:10;3.00;;;1.50;;
13040;SDS011;6587;42.728;23.288;2023-04-25T12:50:36;1.83;;;1.63;;
13040;SDS011;6587;42.728;23.288;2023-04-25T12:53:03;2.87;;;2.30;;
13040;SDS011;6587;42.728;23.288;2023-04-25T12:55:30;4.50;;;2.60;;
13040;SDS011;6587;42.728;23.288;2023-04-25T12:57:56;2.50;;;2.20;;
13040;SDS011;6587;42.728;23.288;2023-04-25T13:00:23;4.90;;;2.30;;
13040;SDS011;6587;42.728;23.288;2023-04-25T13:02:49;3.20;;;1.83;;
13040;SDS011;6587;42.728;23.288;2023-04-25T13:05:17;2.93;;;2.00;;
13040;SDS011;6587;42.728;23.288;2023-04-25T13:07:44;1.93;;;1.70;;
13040;SDS011;6587;42.728;23.288;2023-04-25T13:10:11;1.90;;;1.80;;
13040;SDS011;6587;42.728;23.288;2023-04-25T13:12:37;2.93;;;2.20;;
13040;SDS011;6587;42.728;23.288;2023-04-25T13:15:04;1.90;;;1.70;;
13040;SDS011;6587;42.728;23.288;2023-04-25T13:17:32;3.83;;;2.37;;
13040;SDS011;6587;42.728;23.288;2023-04-25T13:19:58;6.10;;;2.83;;
13040;SDS011;6587;42.728;23.288;2023-04-25T13:22:27;12.00;;;8.00;;
13040;SDS011;6587;42.728;23.288;2023-04-25T13:24:53;6.13;;;4.77;;
13040;SDS011;6587;42.728;23.288;2023-04-25T13:27:20;4.77;;;3.77;;
13040;SDS011;6587;42.728;23.288;2023-04-25T13:29:46;7.13;;;3.73;;
13040;SDS011;6587;42.728;23.288;2023-04-25T13:32:13;4.37;;;3.00;;
13040;SDS011;6587;42.728;23.288;2023-04-25T13:34:39;3.90;;;3.10;;
13040;SDS011;6587;42.728;23.288;2023-04-25T13:37:06;4.90;;;3.13;;
13040;SDS011;6587;42.728;23.288;2023-04-25T13:39:34;5.47;;;2.77;;
13040;SDS011;6587;42.728;23.288;2023-04-25T13:42:00;4.87;;;3.40;;
13040;SDS011;6587;42.728;23.288;2023-04-25T13:44:27;4.57;;;3.40;;
13040;SDS011;6587;42.728;23.288;2023-04-25T13:46:54;4.77;;;3.57;;
13040;SDS011;6587;42.728;23.288;2023-04-25T13:49:20;6.87;;;4.20;;
13040;SDS011;6587;42.728;23.288;2023-04-25T13:51:48;8.00;;;4.83;;
13040;SDS011;6587;42.728;23.288;2023-04-25T13:54:14;9.13;;;4.13;;
13040;SDS011;6587;42.728;23.288;2023-04-25T13:56:42;8.67;;;4.13;;
13040;SDS011;6587;42.728;23.288;2023-04-25T13:59:09;8.53;;;4.17;;
13040;SDS011;6587;42.728;23.288;2023-04-25T14:01:36;7.40;;;3.50;;
13040;SDS011;6587;42.728;23.288;2023-04-25T14:04:03;6.87;;;3.43;;
13040;SDS011;6587;42.728;23.288;2023-04-25T14:06:30;5.83;;;3.60;;
13040;SDS011;6587;42.728;23.288;2023-04-25T14:08:57;2.73;;;2.47;;
13040;SDS011;6587;42.728;23.288;2023-04-25T14:11:25;2.57;;;2.23;;
13040;SDS011;6587;42.728;23.288;2023-04-25T14:13:53;6.13;;;4.80;;
13040;SDS011;6587;42.728;23.288;2023-04-25T14:16:20;10.53;;;5.43;;
13040;SDS011;6587;42.728;23.288;2023-04-25T14:18:48;7.57;;;4.10;;
13040;SDS011;6587;42.728;23.288;2023-04-25T14:21:14;6.20;;;4.17;;
13040;SDS011;6587;42.728;23.288;2023-04-25T14:23:41;3.10;;;2.63;;
13040;SDS011;6587;42.728;23.288;2023-04-25T14:26:07;3.67;;;2.80;;
13040;SDS011;6587;42.728;23.288;2023-04-25T14:28:37;4.30;;;2.80;;
13040;SDS011;6587;42.728;23.288;2023-04-25T14:31:05;4.10;;;3.50;;
13040;SDS011;6587;42.728;23.288;2023-04-25T14:33:31;5.30;;;3.20;;
13040;SDS011;6587;42.728;23.288;2023-04-25T14:35:59;4.50;;;3.37;;
13040;SDS011;6587;42.728;23.288;2023-04-25T14:38:25;3.63;;;2.57;;
13040;SDS011;6587;42.728;23.288;2023-04-25T14:40:52;4.13;;;2.50;;
13040;SDS011;6587;42.728;23.288;2023-04-25T14:43:19;3.17;;;2.20;;
13040;SDS011;6587;42.728;23.288;2023-04-25T14:45:45;7.70;;;4.20;;
13040;SDS011;6587;42.728;23.288;2023-04-25T14:48:13;5.37;;;2.57;;
13040;SDS011;6587;42.728;23.288;2023-04-25T14:50:40;2.70;;;1.90;;
13040;SDS011;6587;42.728;23.288;2023-04-25T14:53:07;2.40;;;2.20;;
13040;SDS011;6587;42.728;23.288;2023-04-25T14:55:33;3.47;;;2.30;;
13040;SDS011;6587;42.728;23.288;2023-04-25T14:58:00;2.23;;;1.93;;